Time;durP1;ratioP1;P1;durP2;ratioP2;P2;SDS_P1;SDS_P2;PMS_P1;PMS_P2;Temp;Humidity;BMP_temperature;BMP_pressure;BME280_temperature;BME280_humidity;BME280_pressure;Samples;Min_cycle;Max_cycle;Signal;HPM_P1;HPM_P2
2023/11/21 00:00:10;;;;;;;12.83;6.30;;;;;;;;;;5099973;28;20205;-64
2023/11/21 00:02:40;;;;;;;8.90;6.67;;;;;;;;;;5099011;28;20308;-64
2023/11/21 00:05:09;;;;;;;13.17;6.50;;;;;;;;;;5098775;28;20222;-64
2023/11/21 00:07:38;;;;;;;8.70;6.07;;;;;;;;;;5099674;28;20205;-64
2023/11/21 00:10:06;;;;;;;10.20;5.77;;;;;;;;;;5112600;28;20231;-64
2023/11/21 00:12:35;;;;;;;14.67;5.87;;;;;;;;;;5119702;28;20252;-64
2023/11/21 00:15:05;;;;;;;9.83;5.20;;;;;;;;;;5099983;28;20206;-64
2023/11/21 00:17:33;;;;;;;7.67;5.63;;;;;;;;;;5099284;28;20675;-64
2023/11/21 00:20:06;;;;;;;9.27;5.30;;;;;;;;;;5099208;28;20220;-64
2023/11/21 00:22:34;;;;;;;9.63;5.20;;;;;;;;;;5099482;28;20316;-64
2023/11/21 00:25:03;;;;;;;7.97;5.80;;;;;;;;;;5107378;28;20229;-64
2023/11/21 00:27:32;;;;;;;9.47;5.83;;;;;;;;;;5119016;28;20292;-64
2023/11/21 00:30:00;;;;;;;9.67;6.87;;;;;;;;;;5118186;28;20227;-64
2023/11/21 00:32:28;;;;;;;9.63;5.90;;;;;;;;;;5108318;28;20264;-65
2023/11/21 00:34:56;;;;;;;9.90;5.20;;;;;;;;;;5111793;28;20193;-64
2023/11/21 00:37:26;;;;;;;10.60;5.13;;;;;;;;;;5101142;28;20213;-64
2023/11/21 00:39:54;;;;;;;12.83;6.00;;;;;;;;;;5098480;28;20202;-64
2023/11/21 00:42:22;;;;;;;8.77;5.40;;;;;;;;;;5101501;28;20225;-64
2023/11/21 00:44:50;;;;;;;8.27;5.17;;;;;;;;;;5098353;28;20227;-64
2023/11/21 00:47:18;;;;;;;9.67;6.03;;;;;;;;;;5107092;28;20212;-64
2023/11/21 00:49:47;;;;;;;16.30;6.73;;;;;;;;;;5098633;28;20206;-64
2023/11/21 00:52:15;;;;;;;9.20;6.47;;;;;;;;;;5098363;28;20267;-64
2023/11/21 00:54:45;;;;;;;16.10;6.37;;;;;;;;;;5097906;28;20282;-64
2023/11/21 00:57:13;;;;;;;8.13;6.33;;;;;;;;;;5114780;28;20674;-64
2023/11/21 00:59:41;;;;;;;11.33;7.03;;;;;;;;;;5118813;28;20228;-63
2023/11/21 01:02:10;;;;;;;10.30;7.63;;;;;;;;;;5109757;28;20271;-64
2023/11/21 01:04:38;;;;;;;15.30;8.07;;;;;;;;;;5115412;28;20205;-64
2023/11/21 01:07:07;;;;;;;12.47;7.70;;;;;;;;;;5105796;28;20204;-64
2023/11/21 01:09:35;;;;;;;13.00;8.00;;;;;;;;;;5117830;28;20676;-64
2023/11/21 01:12:05;;;;;;;13.63;7.90;;;;;;;;;;5112957;28;20728;-64
2023/11/21 01:14:33;;;;;;;13.70;8.57;;;;;;;;;;5114627;28;20647;-64
2023/11/21 01:17:01;;;;;;;18.33;10.43;;;;;;;;;;5111350;28;20652;-64
2023/11/21 01:19:30;;;;;;;26.97;14.87;;;;;;;;;;5101088;28;20230;-64
2023/11/21 01:21:59;;;;;;;26.20;15.13;;;;;;;;;;5112093;28;20224;-64
2023/11/21 01:24:27;;;;;;;28.27;14.13;;;;;;;;;;5117108;28;20205;-64
2023/11/21 01:26:55;;;;;;;26.70;14.67;;;;;;;;;;5111934;28;20224;-64
2023/11/21 01:29:24;;;;;;;31.03;15.57;;;;;;;;;;5114606;28;20201;-64
2023/11/21 01:31:52;;;;;;;24.73;14.13;;;;;;;;;;5103448;28;20228;-64
2023/11/21 01:34:20;;;;;;;17.17;12.90;;;;;;;;;;5116544;28;20247;-64
2023/11/21 01:36:49;;;;;;;17.70;11.20;;;;;;;;;;5103663;28;20311;-64
2023/11/21 01:39:23;;;;;;;24.37;13.60;;;;;;;;;;5114158;28;20200;-64
2023/11/21 01:41:52;;;;;;;26.40;13.77;;;;;;;;;;5116958;28;20259;-64
2023/11/21 01:44:20;;;;;;;23.93;13.30;;;;;;;;;;5098271;28;20594;-64
2023/11/21 01:46:49;;;;;;;22.03;13.47;;;;;;;;;;5098005;28;20217;-64
2023/11/21 01:49:18;;;;;;;22.60;14.77;;;;;;;;;;5097671;28;20263;-64
2023/11/21 01:51:48;;;;;;;21.83;14.07;;;;;;;;;;5097375;28;20308;-64
2023/11/21 01:54:17;;;;;;;24.90;14.80;;;;;;;;;;5097600;28;20273;-63
2023/11/21 01:56:46;;;;;;;20.37;13.70;;;;;;;;;;5096828;28;20201;-64
2023/11/21 01:59:16;;;;;;;24.13;13.67;;;;;;;;;;5097668;28;20591;-64
2023/11/21 02:01:45;;;;;;;25.63;14.10;;;;;;;;;;5104224;28;20233;-63
2023/11/21 02:04:15;;;;;;;18.10;13.07;;;;;;;;;;5097513;28;20236;-64
2023/11/21 02:06:44;;;;;;;22.17;12.97;;;;;;;;;;5100994;28;20263;-64
2023/11/21 02:09:15;;;;;;;22.47;12.97;;;;;;;;;;5097793;28;20215;-64
2023/11/21 02:11:43;;;;;;;18.20;12.47;;;;;;;;;;5097404;28;20224;-64
2023/11/21 02:14:13;;;;;;;16.90;10.90;;;;;;;;;;5111876;28;20224;-64
2023/11/21 02:16:42;;;;;;;16.60;10.87;;;;;;;;;;5117746;28;20243;-64
2023/11/21 02:19:12;;;;;;;14.87;10.07;;;;;;;;;;5109145;28;20198;-64
2023/11/21 02:21:43;;;;;;;15.63;9.20;;;;;;;;;;5105123;28;20244;-64
2023/11/21 02:24:13;;;;;;;16.40;10.27;;;;;;;;;;5098905;28;20210;-64
2023/11/21 02:26:41;;;;;;;13.87;9.93;;;;;;;;;;5099919;28;20221;-64
2023/11/21 02:29:11;;;;;;;15.17;9.70;;;;;;;;;;5097665;28;20201;-63
2023/11/21 02:31:47;;;;;;;14.63;8.57;;;;;;;;;;5114672;28;20580;-64
2023/11/21 02:34:16;;;;;;;12.57;8.47;;;;;;;;;;5105746;28;20205;-64
2023/11/21 02:36:44;;;;;;;11.63;8.57;;;;;;;;;;5111141;28;20197;-64
2023/11/21 02:39:14;;;;;;;12.97;8.13;;;;;;;;;;5108285;28;20197;-64
2023/11/21 02:41:42;;;;;;;15.03;8.20;;;;;;;;;;5099907;28;20221;-65
2023/11/21 02:44:11;;;;;;;10.47;7.97;;;;;;;;;;5111196;28;20205;-64
2023/11/21 02:46:40;;;;;;;8.73;7.47;;;;;;;;;;5112815;28;20273;-64
2023/11/21 02:49:10;;;;;;;12.03;7.50;;;;;;;;;;5098041;28;20657;-64
2023/11/21 02:51:38;;;;;;;9.83;6.57;;;;;;;;;;5120901;27;20223;-64
2023/11/21 02:54:08;;;;;;;10.33;6.33;;;;;;;;;;5121393;28;20319;-64
2023/11/21 02:56:39;;;;;;;9.07;6.90;;;;;;;;;;5107429;28;20193;-64
2023/11/21 02:59:08;;;;;;;8.23;6.17;;;;;;;;;;5101137;28;20213;-65
2023/11/21 03:01:36;;;;;;;7.83;4.77;;;;;;;;;;5104098;28;20218;-65
2023/11/21 03:04:04;;;;;;;7.93;5.23;;;;;;;;;;5115917;28;20235;-65
2023/11/21 03:06:33;;;;;;;11.43;5.20;;;;;;;;;;5119381;28;20231;-63
2023/11/21 03:09:01;;;;;;;8.83;4.50;;;;;;;;;;5121251;28;20213;-64
2023/11/21 03:11:29;;;;;;;5.93;4.63;;;;;;;;;;5107939;28;20217;-65
2023/11/21 03:13:59;;;;;;;10.83;4.67;;;;;;;;;;5100605;28;20205;-65
2023/11/21 03:16:27;;;;;;;5.97;3.80;;;;;;;;;;5099920;28;20201;-63
2023/11/21 03:18:55;;;;;;;6.27;3.93;;;;;;;;;;5099605;28;20193;-63
2023/11/21 03:21:27;;;;;;;5.20;3.23;;;;;;;;;;5099032;28;20629;-63
2023/11/21 03:23:55;;;;;;;6.93;3.37;;;;;;;;;;5099651;28;20212;-63
2023/11/21 03:26:23;;;;;;;5.97;3.53;;;;;;;;;;5112343;28;20227;-65
2023/11/21 03:28:53;;;;;;;3.90;2.87;;;;;;;;;;5120818;28;20205;-63
2023/11/21 03:31:23;;;;;;;4.47;2.80;;;;;;;;;;5116689;28;20252;-63
2023/11/21 03:33:52;;;;;;;4.17;2.63;;;;;;;;;;5120746;28;20228;-65
2023/11/21 03:36:20;;;;;;;4.13;2.17;;;;;;;;;;5119858;28;20197;-65
2023/11/21 03:38:49;;;;;;;2.10;1.70;;;;;;;;;;5119696;28;20208;-65
2023/11/21 03:41:17;;;;;;;5.90;2.10;;;;;;;;;;5119345;27;20216;-65
2023/11/21 03:43:45;;;;;;;4.70;2.00;;;;;;;;;;5101615;28;20660;-65
2023/11/21 03:46:13;;;;;;;4.97;2.30;;;;;;;;;;5102458;28;20193;-65
2023/11/21 03:48:46;;;;;;;5.03;2.03;;;;;;;;;;5119403;28;20205;-65
2023/11/21 03:51:14;;;;;;;2.97;1.80;;;;;;;;;;5109584;28;20224;-65
2023/11/21 03:53:42;;;;;;;3.50;2.07;;;;;;;;;;5104807;28;20236;-65
2023/11/21 03:56:10;;;;;;;4.23;1.83;;;;;;;;;;5119342;28;20215;-65
2023/11/21 03:58:38;;;;;;;2.47;2.10;;;;;;;;;;5111269;28;20652;-65
2023/11/21 04:01:07;;;;;;;2.73;1.70;;;;;;;;;;5108534;28;20258;-65
2023/11/21 04:03:35;;;;;;;3.50;1.60;;;;;;;;;;5111071;28;20281;-65
2023/11/21 04:06:06;;;;;;;2.23;1.80;;;;;;;;;;5102637;28;20689;-65
2023/11/21 04:08:34;;;;;;;3.20;1.93;;;;;;;;;;5099727;28;20221;-65
2023/11/21 04:11:02;;;;;;;5.03;2.10;;;;;;;;;;5099522;28;20205;-65
2023/11/21 04:13:31;;;;;;;6.03;1.83;;;;;;;;;;5099691;28;20595;-65
2023/11/21 04:15:59;;;;;;;3.37;1.87;;;;;;;;;;5099499;28;20296;-65
2023/11/21 04:18:27;;;;;;;5.63;1.77;;;;;;;;;;5099546;28;20263;-65
2023/11/21 04:20:55;;;;;;;2.70;1.43;;;;;;;;;;5109327;28;20575;-65
2023/11/21 04:23:25;;;;;;;3.37;1.87;;;;;;;;;;5117895;28;20205;-65
2023/11/21 04:25:55;;;;;;;1.57;1.40;;;;;;;;;;5104212;28;20205;-65
2023/11/21 04:28:24;;;;;;;2.20;1.60;;;;;;;;;;5098839;28;20263;-65
2023/11/21 04:30:52;;;;;;;3.90;1.50;;;;;;;;;;5110890;28;20614;-65
2023/11/21 04:33:21;;;;;;;2.43;1.47;;;;;;;;;;5104549;28;20235;-65
2023/11/21 04:35:49;;;;;;;5.33;1.50;;;;;;;;;;5118787;28;20655;-65
2023/11/21 04:38:18;;;;;;;4.07;1.40;;;;;;;;;;5118294;28;20193;-65
2023/11/21 04:40:48;;;;;;;1.83;1.40;;;;;;;;;;5118473;27;20208;-65
2023/11/21 04:43:16;;;;;;;6.77;1.97;;;;;;;;;;5098897;28;20266;-64
2023/11/21 04:45:44;;;;;;;2.77;1.60;;;;;;;;;;5098325;28;20201;-64
2023/11/21 04:48:14;;;;;;;5.07;1.77;;;;;;;;;;5106248;28;20297;-63
2023/11/21 04:50:42;;;;;;;4.77;2.20;;;;;;;;;;5110637;28;20243;-65
2023/11/21 04:53:13;;;;;;;2.53;1.60;;;;;;;;;;5098912;28;20596;-66
2023/11/21 04:55:41;;;;;;;4.90;2.10;;;;;;;;;;5098252;28;20302;-66
2023/11/21 04:58:11;;;;;;;5.00;2.10;;;;;;;;;;5101839;28;20204;-66
2023/11/21 05:00:40;;;;;;;2.00;1.53;;;;;;;;;;5103967;28;20200;-65
2023/11/21 05:03:10;;;;;;;6.37;2.03;;;;;;;;;;5118805;28;20225;-66
2023/11/21 05:05:39;;;;;;;4.43;1.90;;;;;;;;;;5107358;28;20205;-65
2023/11/21 05:08:08;;;;;;;5.47;2.07;;;;;;;;;;5098175;28;20226;-65
2023/11/21 05:10:38;;;;;;;3.27;1.93;;;;;;;;;;5097736;28;20576;-66
2023/11/21 05:13:09;;;;;;;3.63;2.03;;;;;;;;;;5097858;28;20225;-63
2023/11/21 05:15:39;;;;;;;6.43;2.50;;;;;;;;;;5117865;28;20197;-64
2023/11/21 05:18:07;;;;;;;5.50;2.03;;;;;;;;;;5116694;28;20200;-67
2023/11/21 05:20:35;;;;;;;8.80;2.77;;;;;;;;;;5098670;28;20656;-64
2023/11/21 05:23:04;;;;;;;10.17;3.50;;;;;;;;;;5097257;28;20225;-65
2023/11/21 05:25:33;;;;;;;7.80;3.23;;;;;;;;;;5110175;28;20205;-64
2023/11/21 05:28:03;;;;;;;6.93;3.00;;;;;;;;;;5118436;28;20315;-65
2023/11/21 05:30:32;;;;;;;4.00;2.73;;;;;;;;;;5110046;28;20206;-65
2023/11/21 05:33:01;;;;;;;5.57;2.60;;;;;;;;;;5102854;28;20221;-65
2023/11/21 05:35:30;;;;;;;10.13;3.60;;;;;;;;;;5103342;28;20228;-65
2023/11/21 05:37:58;;;;;;;6.53;3.20;;;;;;;;;;5098600;28;20197;-65
2023/11/21 05:40:30;;;;;;;11.00;3.40;;;;;;;;;;5098029;28;20193;-65
2023/11/21 05:42:58;;;;;;;3.63;2.90;;;;;;;;;;5105333;28;20218;-65
2023/11/21 05:45:26;;;;;;;8.83;3.27;;;;;;;;;;5098100;28;20201;-66
2023/11/21 05:47:55;;;;;;;6.20;2.97;;;;;;;;;;5098115;28;20218;-65
2023/11/21 05:50:25;;;;;;;5.40;3.57;;;;;;;;;;5105004;28;20228;-65
2023/11/21 05:52:53;;;;;;;6.37;3.40;;;;;;;;;;5101303;28;20287;-65
2023/11/21 05:55:25;;;;;;;4.87;2.87;;;;;;;;;;5098427;28;20233;-65
2023/11/21 05:57:54;;;;;;;5.97;2.80;;;;;;;;;;5117790;28;20585;-65
2023/11/21 06:00:22;;;;;;;2.77;2.37;;;;;;;;;;5115967;28;20258;-65
2023/11/21 06:02:52;;;;;;;5.67;3.10;;;;;;;;;;5098307;28;20221;-65
2023/11/21 06:05:23;;;;;;;5.37;3.10;;;;;;;;;;5099169;28;20197;-65
2023/11/21 06:07:58;;;;;;;5.77;3.77;;;;;;;;;;5110743;28;20247;-65
2023/11/21 06:10:28;;;;;;;6.37;3.50;;;;;;;;;;5097553;28;20213;-65
2023/11/21 06:12:57;;;;;;;6.73;3.50;;;;;;;;;;5097166;28;20736;-65
2023/11/21 06:15:30;;;;;;;8.37;4.33;;;;;;;;;;5097812;28;20286;-65
2023/11/21 06:18:09;;;;;;;6.83;3.50;;;;;;;;;;5097359;28;20288;-65
2023/11/21 06:20:42;;;;;;;8.17;4.30;;;;;;;;;;5097498;28;20205;-65
2023/11/21 06:23:12;;;;;;;5.30;4.57;;;;;;;;;;5097547;28;20230;-65
2023/11/21 06:25:40;;;;;;;6.97;3.87;;;;;;;;;;5106330;28;20206;-65
2023/11/21 06:28:08;;;;;;;4.73;3.43;;;;;;;;;;5113584;28;20238;-65
2023/11/21 06:30:36;;;;;;;5.43;4.27;;;;;;;;;;5115919;28;20668;-65
2023/11/21 06:33:06;;;;;;;6.90;4.30;;;;;;;;;;5100865;28;20232;-65
2023/11/21 06:35:34;;;;;;;8.87;4.83;;;;;;;;;;5120549;28;20200;-65
2023/11/21 06:38:02;;;;;;;7.60;4.60;;;;;;;;;;5121668;28;20205;-64
2023/11/21 06:40:33;;;;;;;7.67;4.30;;;;;;;;;;5120779;28;20223;-64
2023/11/21 06:43:01;;;;;;;8.37;4.87;;;;;;;;;;5105804;28;20224;-65
2023/11/21 06:45:30;;;;;;;8.17;4.47;;;;;;;;;;5120691;28;20278;-65
2023/11/21 06:48:00;;;;;;;5.13;4.00;;;;;;;;;;5121534;28;20212;-66
2023/11/21 06:50:32;;;;;;;7.53;4.50;;;;;;;;;;5120530;28;20219;-64
2023/11/21 06:53:02;;;;;;;10.27;4.70;;;;;;;;;;5111085;28;20220;-64
2023/11/21 06:55:32;;;;;;;5.23;3.37;;;;;;;;;;5107553;28;20233;-64
2023/11/21 06:58:01;;;;;;;5.23;4.37;;;;;;;;;;5101500;28;20614;-64
2023/11/21 07:00:29;;;;;;;9.40;5.23;;;;;;;;;;5103224;28;20674;-64
2023/11/21 07:03:00;;;;;;;6.67;4.63;;;;;;;;;;5101190;28;20313;-64
2023/11/21 07:05:28;;;;;;;8.17;5.23;;;;;;;;;;5104437;28;20232;-66
2023/11/21 07:07:56;;;;;;;6.53;5.20;;;;;;;;;;5121316;28;20204;-64
2023/11/21 07:10:27;;;;;;;7.33;5.30;;;;;;;;;;5120021;28;20236;-63
2023/11/21 07:13:01;;;;;;;12.87;6.07;;;;;;;;;;5120927;28;20231;-63
2023/11/21 07:15:29;;;;;;;9.77;5.43;;;;;;;;;;5114877;28;20653;-63
2023/11/21 07:17:57;;;;;;;7.57;5.20;;;;;;;;;;5107930;28;20667;-63
2023/11/21 07:20:30;;;;;;;8.80;5.10;;;;;;;;;;5104772;28;20271;-65
2023/11/21 07:26:20;;;;;;;8.07;5.17;;;;;;;;;;5055460;28;20617;-63
2023/11/21 07:28:52;;;;;;;11.37;6.93;;;;;;;;;;5115528;28;20573;-64
2023/11/21 07:31:20;;;;;;;7.60;4.93;;;;;;;;;;5108282;28;20221;-63
2023/11/21 07:33:52;;;;;;;7.67;5.50;;;;;;;;;;5115777;28;20201;-64
2023/11/21 07:36:20;;;;;;;7.87;5.47;;;;;;;;;;5123563;27;20594;-64
2023/11/21 07:38:49;;;;;;;9.37;5.70;;;;;;;;;;5126881;27;20203;-63
2023/11/21 07:41:19;;;;;;;8.37;5.60;;;;;;;;;;5125683;27;20227;-64
2023/11/21 07:43:59;;;;;;;7.00;4.73;;;;;;;;;;5130929;27;20196;-65
2023/11/21 07:46:29;;;;;;;10.40;5.47;;;;;;;;;;5126247;27;20211;-63
2023/11/21 07:48:57;;;;;;;11.53;4.87;;;;;;;;;;5124725;27;20266;-65
2023/11/21 07:51:26;;;;;;;8.70;4.83;;;;;;;;;;5126418;27;20584;-64
2023/11/21 07:53:57;;;;;;;6.97;4.90;;;;;;;;;;5122742;27;20256;-63
2023/11/21 07:56:26;;;;;;;11.27;6.00;;;;;;;;;;5100385;28;20216;-65
2023/11/21 07:58:54;;;;;;;9.73;6.33;;;;;;;;;;5102260;28;20197;-65
2023/11/21 08:01:23;;;;;;;8.33;5.57;;;;;;;;;;5105938;28;20221;-65
2023/11/21 08:03:52;;;;;;;5.03;4.43;;;;;;;;;;5103273;27;20212;-65
2023/11/21 08:06:20;;;;;;;7.97;4.10;;;;;;;;;;5103245;28;20206;-65
2023/11/21 08:08:48;;;;;;;7.20;4.60;;;;;;;;;;5099883;28;20223;-65
2023/11/21 08:11:16;;;;;;;7.47;5.43;;;;;;;;;;5112116;28;20225;-65
2023/11/21 08:13:47;;;;;;;10.37;5.10;;;;;;;;;;5099665;28;20205;-65
2023/11/21 08:16:16;;;;;;;6.83;5.47;;;;;;;;;;5099462;28;20212;-65
2023/11/21 08:18:46;;;;;;;9.90;6.73;;;;;;;;;;5099596;28;20219;-65
2023/11/21 08:21:14;;;;;;;9.77;6.60;;;;;;;;;;5111815;28;20631;-65
2023/11/21 08:23:42;;;;;;;10.80;7.07;;;;;;;;;;5115141;28;20194;-65
2023/11/21 08:26:10;;;;;;;9.00;6.83;;;;;;;;;;5103896;28;20668;-63
2023/11/21 08:28:39;;;;;;;11.10;7.67;;;;;;;;;;5097296;28;20232;-64
2023/11/21 08:31:07;;;;;;;11.57;6.93;;;;;;;;;;5113221;27;20216;-64
2023/11/21 08:33:35;;;;;;;11.63;8.00;;;;;;;;;;5124142;27;20203;-64
2023/11/21 08:36:10;;;;;;;10.20;7.50;;;;;;;;;;5128901;27;20196;-64
2023/11/21 08:38:41;;;;;;;11.00;7.07;;;;;;;;;;5099172;28;20204;-65
2023/11/21 08:41:09;;;;;;;14.43;7.23;;;;;;;;;;5105882;28;20229;-65
2023/11/21 08:43:39;;;;;;;7.13;4.33;;;;;;;;;;5099084;28;20214;-66
2023/11/21 08:46:08;;;;;;;6.47;3.93;;;;;;;;;;5106237;28;20605;-65
2023/11/21 08:48:37;;;;;;;6.17;4.00;;;;;;;;;;5118782;28;20634;-65
2023/11/21 08:51:06;;;;;;;5.70;3.67;;;;;;;;;;5118149;28;20217;-66
2023/11/21 08:53:35;;;;;;;8.47;4.27;;;;;;;;;;5102361;28;20198;-65
2023/11/21 08:56:04;;;;;;;7.30;3.73;;;;;;;;;;5092534;28;20767;-65
2023/11/21 08:58:32;;;;;;;8.20;4.40;;;;;;;;;;5104720;28;20656;-65
2023/11/21 09:01:03;;;;;;;4.80;3.33;;;;;;;;;;5097024;28;20197;-65
2023/11/21 09:03:33;;;;;;;4.53;3.00;;;;;;;;;;5097578;28;20205;-65
2023/11/21 09:06:03;;;;;;;4.47;3.17;;;;;;;;;;5101518;28;20676;-65
2023/11/21 09:08:31;;;;;;;5.33;3.30;;;;;;;;;;5098274;28;20285;-65
2023/11/21 09:11:02;;;;;;;5.43;2.83;;;;;;;;;;5098552;28;20237;-65
2023/11/21 09:13:30;;;;;;;16.13;8.67;;;;;;;;;;5098283;28;20209;-65
2023/11/21 09:15:59;;;;;;;6.93;3.83;;;;;;;;;;5105058;28;20277;-65
2023/11/21 09:18:27;;;;;;;3.90;3.20;;;;;;;;;;5105442;28;20205;-66
2023/11/21 09:20:55;;;;;;;4.20;2.90;;;;;;;;;;5098275;28;20201;-65
2023/11/21 09:23:23;;;;;;;2.87;2.60;;;;;;;;;;5098432;28;20221;-65
2023/11/21 09:25:51;;;;;;;4.33;2.40;;;;;;;;;;5108943;28;20713;-66
2023/11/21 09:28:21;;;;;;;5.33;2.40;;;;;;;;;;5113169;28;20611;-63
2023/11/21 09:30:50;;;;;;;3.20;2.23;;;;;;;;;;5107047;28;20801;-65
2023/11/21 09:33:18;;;;;;;2.43;2.23;;;;;;;;;;5105196;28;20212;-65
2023/11/21 09:35:46;;;;;;;2.10;1.40;;;;;;;;;;5105182;28;20197;-65
2023/11/21 09:38:14;;;;;;;2.77;1.77;;;;;;;;;;5118019;28;20205;-65
2023/11/21 09:40:42;;;;;;;3.40;2.00;;;;;;;;;;5116852;28;20664;-65
2023/11/21 09:43:18;;;;;;;3.73;1.83;;;;;;;;;;5117189;28;20252;-64
2023/11/21 09:45:50;;;;;;;3.00;2.47;;;;;;;;;;5115516;28;20204;-65
2023/11/21 09:48:19;;;;;;;5.10;2.23;;;;;;;;;;5105192;28;20201;-65
2023/11/21 09:50:48;;;;;;;7.87;1.97;;;;;;;;;;5116453;28;20695;-65
2023/11/21 09:53:21;;;;;;;3.23;1.63;;;;;;;;;;5117852;28;20265;-65
2023/11/21 09:55:52;;;;;;;3.70;1.93;;;;;;;;;;5109515;28;20225;-65
2023/11/21 09:58:21;;;;;;;2.67;2.00;;;;;;;;;;5102836;28;20201;-65
2023/11/21 10:00:57;;;;;;;4.50;2.13;;;;;;;;;;5103470;28;20675;-65
2023/11/21 10:03:25;;;;;;;2.70;1.97;;;;;;;;;;5115949;28;20227;-65
2023/11/21 10:05:54;;;;;;;3.70;1.67;;;;;;;;;;5123500;27;20204;-64
2023/11/21 10:08:23;;;;;;;3.20;2.53;;;;;;;;;;5107621;27;20260;-65
2023/11/21 10:10:54;;;;;;;3.47;2.10;;;;;;;;;;5124124;28;20354;-65
2023/11/21 10:13:22;;;;;;;3.03;2.00;;;;;;;;;;5112838;27;20201;-65
2023/11/21 10:15:55;;;;;;;4.00;2.30;;;;;;;;;;5103816;28;20579;-65
2023/11/21 10:18:25;;;;;;;3.87;2.40;;;;;;;;;;5104071;28;20213;-64
2023/11/21 10:20:54;;;;;;;2.47;2.27;;;;;;;;;;5113547;28;20213;-64
2023/11/21 10:23:22;;;;;;;2.07;1.60;;;;;;;;;;5113737;27;20212;-65
2023/11/21 10:25:52;;;;;;;2.43;2.00;;;;;;;;;;5115941;28;20205;-65
2023/11/21 10:28:21;;;;;;;4.00;1.60;;;;;;;;;;5103845;28;20723;-65
2023/11/21 10:30:49;;;;;;;3.50;2.07;;;;;;;;;;5106062;28;20684;-65
2023/11/21 10:33:27;;;;;;;3.40;1.50;;;;;;;;;;5102757;28;20205;-64
2023/11/21 10:35:55;;;;;;;1.77;1.10;;;;;;;;;;5103903;28;20203;-65
2023/11/21 10:38:25;;;;;;;1.30;1.20;;;;;;;;;;5120576;28;20200;-65
2023/11/21 10:40:54;;;;;;;3.37;1.30;;;;;;;;;;5108930;27;20247;-64
2023/11/21 10:43:26;;;;;;;1.27;1.17;;;;;;;;;;5117454;27;20614;-64
2023/11/21 10:45:58;;;;;;;2.97;1.20;;;;;;;;;;5123445;27;20253;-64
2023/11/21 10:48:28;;;;;;;2.83;1.30;;;;;;;;;;5124735;27;20271;-64
2023/11/21 10:50:57;;;;;;;1.57;1.20;;;;;;;;;;5123783;27;20213;-64
2023/11/21 10:53:29;;;;;;;1.27;1.10;;;;;;;;;;5124138;27;20224;-64
2023/11/21 10:56:03;;;;;;;1.83;0.93;;;;;;;;;;5111485;27;20236;-65
2023/11/21 10:58:32;;;;;;;0.90;0.90;;;;;;;;;;5107502;28;20202;-63
2023/11/21 11:01:01;;;;;;;1.20;1.10;;;;;;;;;;5106057;28;20197;-64
2023/11/21 11:03:33;;;;;;;2.13;1.50;;;;;;;;;;5102297;28;20202;-64
2023/11/21 11:06:02;;;;;;;1.00;1.00;;;;;;;;;;5117714;28;20556;-64
2023/11/21 11:08:35;;;;;;;4.37;1.17;;;;;;;;;;5121715;28;20200;-64
2023/11/21 11:11:03;;;;;;;0.70;0.70;;;;;;;;;;5119304;27;20224;-64
2023/11/21 11:13:31;;;;;;;1.90;0.97;;;;;;;;;;5120574;28;20575;-64
2023/11/21 11:16:01;;;;;;;1.10;1.00;;;;;;;;;;5108021;27;20680;-64
2023/11/21 11:18:31;;;;;;;2.70;1.20;;;;;;;;;;5111362;28;20259;-64
2023/11/21 11:21:12;;;;;;;2.00;0.90;;;;;;;;;;5098291;28;20204;-64
2023/11/21 11:23:47;;;;;;;3.23;1.40;;;;;;;;;;5100163;28;20209;-64
2023/11/21 11:26:27;;;;;;;2.10;1.07;;;;;;;;;;5118381;28;20204;-65
2023/11/21 11:29:02;;;;;;;1.67;1.20;;;;;;;;;;5121000;28;20217;-64
2023/11/21 11:31:38;;;;;;;1.53;1.00;;;;;;;;;;5102401;28;20278;-65
2023/11/21 11:34:13;;;;;;;1.60;1.00;;;;;;;;;;5104457;28;20208;-65
2023/11/21 11:36:44;;;;;;;5.83;3.83;;;;;;;;;;5117135;28;20207;-65
2023/11/21 11:39:28;;;;;;;5.43;2.60;;;;;;;;;;5100704;28;20204;-65
2023/11/21 11:41:56;;;;;;;1.83;1.00;;;;;;;;;;5110653;28;20716;-64
2023/11/21 11:44:39;;;;;;;2.10;0.90;;;;;;;;;;5112034;28;20568;-64
2023/11/21 11:47:14;;;;;;;1.00;0.90;;;;;;;;;;5095065;28;20209;-64
2023/11/21 11:49:58;;;;;;;0.93;0.80;;;;;;;;;;5099331;28;20208;-64
2023/11/21 11:52:36;;;;;;;1.60;1.00;;;;;;;;;;5098215;28;20232;-64
2023/11/21 11:55:05;;;;;;;0.97;0.90;;;;;;;;;;5115840;28;20232;-64
2023/11/21 11:57:36;;;;;;;2.50;1.17;;;;;;;;;;5120214;28;20208;-64
2023/11/21 12:00:10;;;;;;;1.43;0.90;;;;;;;;;;5116362;28;20205;-65
2023/11/21 12:02:40;;;;;;;4.43;1.07;;;;;;;;;;5099403;28;20220;-64
2023/11/21 12:05:12;;;;;;;1.13;0.90;;;;;;;;;;5099235;28;20236;-65
2023/11/21 12:07:47;;;;;;;0.80;0.80;;;;;;;;;;5113586;28;20282;-65
2023/11/21 12:10:17;;;;;;;0.80;0.80;;;;;;;;;;5119863;28;20236;-63
2023/11/21 12:12:50;;;;;;;0.93;0.67;;;;;;;;;;5107152;27;20232;-63
2023/11/21 12:15:19;;;;;;;0.60;0.60;;;;;;;;;;5099165;28;20209;-63
2023/11/21 12:17:48;;;;;;;0.70;0.70;;;;;;;;;;5099494;28;20232;-63
2023/11/21 12:20:19;;;;;;;1.63;1.20;;;;;;;;;;5099353;28;20201;-63
2023/11/21 12:22:51;;;;;;;0.70;0.70;;;;;;;;;;5098320;28;20225;-62
2023/11/21 12:25:23;;;;;;;2.17;0.90;;;;;;;;;;5103010;28;20247;-63
2023/11/21 12:27:52;;;;;;;2.73;2.00;;;;;;;;;;5106302;27;20279;-63
2023/11/21 12:30:21;;;;;;;0.90;0.83;;;;;;;;;;5101380;28;20202;-62
2023/11/21 12:32:51;;;;;;;1.47;1.20;;;;;;;;;;5098341;28;20225;-63
2023/11/21 12:35:36;;;;;;;1.17;0.87;;;;;;;;;;5097978;28;20202;-62
2023/11/21 12:38:05;;;;;;;0.70;0.70;;;;;;;;;;5098863;28;20255;-62
2023/11/21 12:40:34;;;;;;;0.70;0.70;;;;;;;;;;5095289;27;20232;-62
2023/11/21 12:43:04;;;;;;;1.43;1.20;;;;;;;;;;5096409;28;20224;-63
2023/11/21 12:45:32;;;;;;;1.83;0.93;;;;;;;;;;5093347;28;20532;-63
2023/11/21 12:48:07;;;;;;;0.70;0.70;;;;;;;;;;5093531;28;20237;-64
2023/11/21 12:50:38;;;;;;;1.03;0.80;;;;;;;;;;5093814;27;20765;-63
2023/11/21 12:53:08;;;;;;;0.80;0.80;;;;;;;;;;5092608;28;20267;-63
2023/11/21 12:55:37;;;;;;;0.60;0.60;;;;;;;;;;5094386;27;20254;-64
2023/11/21 12:58:08;;;;;;;2.47;0.77;;;;;;;;;;5100320;28;20757;-64
2023/11/21 13:00:39;;;;;;;2.93;0.70;;;;;;;;;;5110918;28;20205;-63
2023/11/21 13:03:12;;;;;;;0.90;0.90;;;;;;;;;;5117787;28;20577;-64
2023/11/21 13:05:44;;;;;;;0.87;0.87;;;;;;;;;;5123108;27;20235;-64
2023/11/21 13:08:19;;;;;;;0.60;0.60;;;;;;;;;;5119051;27;20216;-63
2023/11/21 13:10:49;;;;;;;1.07;1.00;;;;;;;;;;5123067;27;20239;-63
2023/11/21 13:13:18;;;;;;;0.80;0.80;;;;;;;;;;5121259;27;20631;-63
2023/11/21 13:15:52;;;;;;;1.67;0.60;;;;;;;;;;5125945;27;20279;-63
2023/11/21 13:18:21;;;;;;;0.50;0.50;;;;;;;;;;5122445;27;20192;-63
2023/11/21 13:20:51;;;;;;;2.10;0.90;;;;;;;;;;5121654;27;20213;-63
2023/11/21 13:23:19;;;;;;;0.60;0.60;;;;;;;;;;5098554;28;20208;-63
2023/11/21 13:25:48;;;;;;;2.43;1.07;;;;;;;;;;5116280;27;20204;-63
2023/11/21 13:28:32;;;;;;;1.60;0.90;;;;;;;;;;5124174;27;20606;-63
2023/11/21 13:31:09;;;;;;;1.37;1.03;;;;;;;;;;5109475;27;20212;-63
2023/11/21 13:33:40;;;;;;;2.10;0.90;;;;;;;;;;5116875;28;20224;-64
2023/11/21 13:36:11;;;;;;;1.27;0.90;;;;;;;;;;5117636;28;20201;-64
2023/11/21 13:38:42;;;;;;;1.13;1.03;;;;;;;;;;5097102;28;20589;-64
2023/11/21 13:41:13;;;;;;;5.30;1.43;;;;;;;;;;5101761;28;20247;-64
2023/11/21 13:43:44;;;;;;;1.90;1.30;;;;;;;;;;5102336;28;20200;-63
2023/11/21 13:46:17;;;;;;;1.43;0.90;;;;;;;;;;5111963;28;20228;-63
2023/11/21 13:48:50;;;;;;;1.10;1.00;;;;;;;;;;5117677;27;20204;-63
2023/11/21 13:51:28;;;;;;;1.23;1.00;;;;;;;;;;5116393;28;20256;-63
2023/11/21 13:53:57;;;;;;;3.37;1.00;;;;;;;;;;5118375;28;20196;-64
2023/11/21 13:56:28;;;;;;;0.80;0.80;;;;;;;;;;5116811;28;20200;-63
2023/11/21 13:58:56;;;;;;;0.93;0.93;;;;;;;;;;5118369;28;20258;-64
2023/11/21 14:01:44;;;;;;;1.43;1.33;;;;;;;;;;5103085;28;20232;-65
2023/11/21 14:04:46;;;;;;;1.30;1.13;;;;;;;;;;5117310;28;20291;-62
2023/11/21 14:07:26;;;;;;;3.67;1.73;;;;;;;;;;5095257;28;20205;-62
2023/11/21 14:09:55;;;;;;;0.93;0.93;;;;;;;;;;5107160;28;20225;-63
2023/11/21 14:12:24;;;;;;;1.33;0.80;;;;;;;;;;5097191;28;20312;-64
2023/11/21 14:14:52;;;;;;;1.60;1.00;;;;;;;;;;5101901;28;20213;-63
2023/11/21 14:17:32;;;;;;;3.50;1.43;;;;;;;;;;5106327;28;20208;-63
2023/11/21 14:20:20;;;;;;;2.43;1.00;;;;;;;;;;5111030;28;20204;-62
2023/11/21 14:25:49;;;;;;;2.80;1.10;;;;;;;;;;5062207;27;2106099;-63
2023/11/21 14:28:21;;;;;;;2.73;1.10;;;;;;;;;;5114982;28;20215;-63
2023/11/21 14:30:56;;;;;;;1.30;1.20;;;;;;;;;;5095526;28;20202;-63
2023/11/21 14:33:34;;;;;;;2.13;1.33;;;;;;;;;;5094657;28;20200;-63
2023/11/21 14:36:08;;;;;;;1.60;1.37;;;;;;;;;;5095724;28;21875;-63
2023/11/21 14:38:39;;;;;;;1.83;1.10;;;;;;;;;;5092692;28;20255;-63
2023/11/21 14:41:13;;;;;;;5.83;1.20;;;;;;;;;;5094830;28;20225;-63
2023/11/21 14:43:49;;;;;;;2.77;1.40;;;;;;;;;;5093310;28;20197;-63
2023/11/21 14:46:20;;;;;;;1.37;1.10;;;;;;;;;;5094007;28;20564;-63
2023/11/21 14:48:58;;;;;;;1.17;1.17;;;;;;;;;;5108516;28;20630;-64
2023/11/21 14:51:31;;;;;;;1.10;1.10;;;;;;;;;;5093848;28;20317;-62
2023/11/21 14:54:06;;;;;;;1.70;1.60;;;;;;;;;;5091297;28;20254;-63
2023/11/21 14:56:38;;;;;;;1.50;1.40;;;;;;;;;;5093674;28;20576;-63
2023/11/21 14:59:25;;;;;;;1.90;1.53;;;;;;;;;;5101020;28;20198;-62
2023/11/21 15:01:55;;;;;;;1.60;1.33;;;;;;;;;;5093584;28;20213;-62